Terminal Aerodrome Forecast
Issued by NWS Missoula, MT

Current Version | Previous Version | Text Only | Print | Product List | Glossary On
Versions: 1 2 3 4 5 6 7 8 9 10 11 12 13
000
FTUS45 KMSO 271720
TAFBTM
TAF
KBTM 271720Z 2718/2818 VRB05KT P6SM SCT090
     FM271900 27012G22KT P6SM BKN150
     FM280300 VRB05KT P6SM BKN120=

USA.gov is the U.S. government's official web portal to all federal, state and local government web resources and services.